sensor_id;sensor_type;location;lat;lon;timestamp;temperature;humidity
19555;DHT22;9924;50.828;6.440;2023-12-20T00:02:16;7.70;99.90
19555;DHT22;9924;50.828;6.440;2023-12-20T00:04:42;7.70;99.90
19555;DHT22;9924;50.828;6.440;2023-12-20T00:07:08;7.70;99.90
19555;DHT22;9924;50.828;6.440;2023-12-20T00:09:33;7.70;99.90
19555;DHT22;9924;50.828;6.440;2023-12-20T00:11:59;7.70;99.90
19555;DHT22;9924;50.828;6.440;2023-12-20T00:14:25;7.70;99.90
19555;DHT22;9924;50.828;6.440;2023-12-20T00:16:51;7.70;99.90
19555;DHT22;9924;50.828;6.440;2023-12-20T00:19:17;7.70;99.90
19555;DHT22;9924;50.828;6.440;2023-12-20T00:21:42;7.70;99.90
19555;DHT22;9924;50.828;6.440;2023-12-20T00:24:08;7.70;99.90
19555;DHT22;9924;50.828;6.440;2023-12-20T00:26:37;7.70;99.90
19555;DHT22;9924;50.828;6.440;2023-12-20T00:29:06;7.70;99.90
19555;DHT22;9924;50.828;6.440;2023-12-20T00:31:32;7.70;99.90
19555;DHT22;9924;50.828;6.440;2023-12-20T00:33:57;7.70;99.90
19555;DHT22;9924;50.828;6.440;2023-12-20T00:36:26;7.60;99.90
19555;DHT22;9924;50.828;6.440;2023-12-20T00:38:52;7.60;99.90
19555;DHT22;9924;50.828;6.440;2023-12-20T00:41:18;7.60;99.90
19555;DHT22;9924;50.828;6.440;2023-12-20T00:43:44;7.60;99.90
19555;DHT22;9924;50.828;6.440;2023-12-20T00:46:10;7.60;99.90
19555;DHT22;9924;50.828;6.440;2023-12-20T00:48:36;7.60;99.90
19555;DHT22;9924;50.828;6.440;2023-12-20T00:51:02;7.60;99.90
19555;DHT22;9924;50.828;6.440;2023-12-20T00:53:28;7.60;99.90
19555;DHT22;9924;50.828;6.440;2023-12-20T00:55:54;7.60;99.90
19555;DHT22;9924;50.828;6.440;2023-12-20T00:58:20;7.60;99.90
19555;DHT22;9924;50.828;6.440;2023-12-20T01:00:46;7.60;99.90
19555;DHT22;9924;50.828;6.440;2023-12-20T01:03:12;7.60;99.90
19555;DHT22;9924;50.828;6.440;2023-12-20T01:05:38;7.60;99.90
19555;DHT22;9924;50.828;6.440;2023-12-20T01:08:04;7.60;99.90
19555;DHT22;9924;50.828;6.440;2023-12-20T01:10:30;7.60;99.90
19555;DHT22;9924;50.828;6.440;2023-12-20T01:12:56;7.60;99.90
19555;DHT22;9924;50.828;6.440;2023-12-20T01:15:22;7.50;99.90
19555;DHT22;9924;50.828;6.440;2023-12-20T01:17:48;7.50;99.90
19555;DHT22;9924;50.828;6.440;2023-12-20T01:20:15;7.50;99.90
19555;DHT22;9924;50.828;6.440;2023-12-20T01:22:40;7.40;99.90
19555;DHT22;9924;50.828;6.440;2023-12-20T01:25:08;7.30;99.90
19555;DHT22;9924;50.828;6.440;2023-12-20T01:27:34;7.20;99.90
19555;DHT22;9924;50.828;6.440;2023-12-20T01:30:00;7.20;99.90
19555;DHT22;9924;50.828;6.440;2023-12-20T01:32:26;7.00;99.90
19555;DHT22;9924;50.828;6.440;2023-12-20T01:34:51;6.90;99.90
19555;DHT22;9924;50.828;6.440;2023-12-20T01:37:17;6.80;99.90
19555;DHT22;9924;50.828;6.440;2023-12-20T01:39:43;6.70;99.90
19555;DHT22;9924;50.828;6.440;2023-12-20T01:42:09;6.60;99.90
19555;DHT22;9924;50.828;6.440;2023-12-20T01:44:34;6.50;99.90
19555;DHT22;9924;50.828;6.440;2023-12-20T01:47:00;6.50;99.90
19555;DHT22;9924;50.828;6.440;2023-12-20T01:49:27;6.40;99.90
19555;DHT22;9924;50.828;6.440;2023-12-20T01:51:53;6.30;99.90
19555;DHT22;9924;50.828;6.440;2023-12-20T01:54:19;6.20;99.90
19555;DHT22;9924;50.828;6.440;2023-12-20T01:56:46;6.20;99.90
19555;DHT22;9924;50.828;6.440;2023-12-20T01:59:12;6.10;99.90
19555;DHT22;9924;50.828;6.440;2023-12-20T02:01:38;6.10;99.90
19555;DHT22;9924;50.828;6.440;2023-12-20T02:04:04;6.00;99.90
19555;DHT22;9924;50.828;6.440;2023-12-20T02:06:30;5.90;99.90
19555;DHT22;9924;50.828;6.440;2023-12-20T02:08:59;6.00;99.90
19555;DHT22;9924;50.828;6.440;2023-12-20T02:11:25;6.00;99.90
19555;DHT22;9924;50.828;6.440;2023-12-20T02:13:51;6.10;99.90
19555;DHT22;9924;50.828;6.440;2023-12-20T02:16:17;6.10;99.90
19555;DHT22;9924;50.828;6.440;2023-12-20T02:18:43;6.10;99.90
19555;DHT22;9924;50.828;6.440;2023-12-20T02:21:10;6.20;99.90
19555;DHT22;9924;50.828;6.440;2023-12-20T02:23:35;6.20;99.90
19555;DHT22;9924;50.828;6.440;2023-12-20T02:26:02;6.20;99.90
19555;DHT22;9924;50.828;6.440;2023-12-20T02:28:28;6.20;99.90
19555;DHT22;9924;50.828;6.440;2023-12-20T02:30:54;6.20;99.90
19555;DHT22;9924;50.828;6.440;2023-12-20T02:33:20;6.20;99.90
19555;DHT22;9924;50.828;6.440;2023-12-20T02:35:45;6.30;99.90
19555;DHT22;9924;50.828;6.440;2023-12-20T02:38:11;6.30;99.90
19555;DHT22;9924;50.828;6.440;2023-12-20T02:40:37;6.30;99.90
19555;DHT22;9924;50.828;6.440;2023-12-20T02:43:03;6.30;99.90
19555;DHT22;9924;50.828;6.440;2023-12-20T02:45:28;6.30;99.90
19555;DHT22;9924;50.828;6.440;2023-12-20T02:47:54;6.30;99.90
19555;DHT22;9924;50.828;6.440;2023-12-20T02:50:20;6.30;99.90
19555;DHT22;9924;50.828;6.440;2023-12-20T02:52:45;6.30;99.90
19555;DHT22;9924;50.828;6.440;2023-12-20T02:55:11;6.30;99.90
19555;DHT22;9924;50.828;6.440;2023-12-20T02:57:37;6.30;99.90
19555;DHT22;9924;50.828;6.440;2023-12-20T03:00:10;6.30;99.90
19555;DHT22;9924;50.828;6.440;2023-12-20T03:02:36;6.30;99.90
19555;DHT22;9924;50.828;6.440;2023-12-20T03:05:02;6.30;99.90
19555;DHT22;9924;50.828;6.440;2023-12-20T03:07:28;6.30;99.90
19555;DHT22;9924;50.828;6.440;2023-12-20T03:09:53;6.30;99.90
19555;DHT22;9924;50.828;6.440;2023-12-20T03:12:19;6.30;99.90
19555;DHT22;9924;50.828;6.440;2023-12-20T03:14:45;6.30;99.90
19555;DHT22;9924;50.828;6.440;2023-12-20T03:17:10;6.30;99.90
19555;DHT22;9924;50.828;6.440;2023-12-20T03:19:36;6.30;99.90
19555;DHT22;9924;50.828;6.440;2023-12-20T03:22:02;6.30;99.90
19555;DHT22;9924;50.828;6.440;2023-12-20T03:24:28;6.30;99.90
19555;DHT22;9924;50.828;6.440;2023-12-20T03:26:53;6.30;99.90
19555;DHT22;9924;50.828;6.440;2023-12-20T03:29:19;6.30;99.90
19555;DHT22;9924;50.828;6.440;2023-12-20T03:31:45;6.30;99.90
19555;DHT22;9924;50.828;6.440;2023-12-20T03:34:11;6.30;99.90
19555;DHT22;9924;50.828;6.440;2023-12-20T03:36:37;6.30;99.90
19555;DHT22;9924;50.828;6.440;2023-12-20T03:39:03;6.30;99.90
19555;DHT22;9924;50.828;6.440;2023-12-20T03:41:29;6.30;99.90
19555;DHT22;9924;50.828;6.440;2023-12-20T03:43:54;6.30;99.90
19555;DHT22;9924;50.828;6.440;2023-12-20T03:46:20;6.30;99.90
19555;DHT22;9924;50.828;6.440;2023-12-20T03:48:45;6.30;99.90
19555;DHT22;9924;50.828;6.440;2023-12-20T03:51:11;6.20;99.90
19555;DHT22;9924;50.828;6.440;2023-12-20T03:53:37;6.20;99.90
19555;DHT22;9924;50.828;6.440;2023-12-20T03:56:03;6.20;99.90
19555;DHT22;9924;50.828;6.440;2023-12-20T03:58:29;6.20;99.90
19555;DHT22;9924;50.828;6.440;2023-12-20T04:00:54;6.20;99.90
19555;DHT22;9924;50.828;6.440;2023-12-20T04:03:20;6.10;99.90
19555;DHT22;9924;50.828;6.440;2023-12-20T04:05:46;6.10;99.90
19555;DHT22;9924;50.828;6.440;2023-12-20T04:08:11;6.00;99.90
19555;DHT22;9924;50.828;6.440;2023-12-20T04:10:37;6.00;99.90
19555;DHT22;9924;50.828;6.440;2023-12-20T04:13:04;6.00;99.90
19555;DHT22;9924;50.828;6.440;2023-12-20T04:15:29;6.00;99.90
19555;DHT22;9924;50.828;6.440;2023-12-20T04:17:55;6.00;99.90
19555;DHT22;9924;50.828;6.440;2023-12-20T04:20:21;6.00;99.90
19555;DHT22;9924;50.828;6.440;2023-12-20T04:22:46;6.10;99.90
19555;DHT22;9924;50.828;6.440;2023-12-20T04:25:12;6.10;99.90
19555;DHT22;9924;50.828;6.440;2023-12-20T04:27:38;6.10;99.90
19555;DHT22;9924;50.828;6.440;2023-12-20T04:30:04;6.10;99.90
19555;DHT22;9924;50.828;6.440;2023-12-20T04:32:29;6.10;99.90
19555;DHT22;9924;50.828;6.440;2023-12-20T04:34:55;6.10;99.90
19555;DHT22;9924;50.828;6.440;2023-12-20T04:37:21;6.10;99.90
19555;DHT22;9924;50.828;6.440;2023-12-20T04:39:46;6.00;99.90
19555;DHT22;9924;50.828;6.440;2023-12-20T04:42:12;6.00;99.90
19555;DHT22;9924;50.828;6.440;2023-12-20T04:44:38;6.00;99.90
19555;DHT22;9924;50.828;6.440;2023-12-20T04:47:03;6.00;99.90
19555;DHT22;9924;50.828;6.440;2023-12-20T04:49:29;5.90;99.90
19555;DHT22;9924;50.828;6.440;2023-12-20T04:51:55;5.90;99.90
19555;DHT22;9924;50.828;6.440;2023-12-20T04:54:21;5.90;99.90
19555;DHT22;9924;50.828;6.440;2023-12-20T04:56:47;5.80;99.90
19555;DHT22;9924;50.828;6.440;2023-12-20T04:59:12;5.80;99.90
19555;DHT22;9924;50.828;6.440;2023-12-20T05:01:39;5.90;99.90
19555;DHT22;9924;50.828;6.440;2023-12-20T05:04:04;5.90;99.90
19555;DHT22;9924;50.828;6.440;2023-12-20T05:06:30;5.90;99.90
19555;DHT22;9924;50.828;6.440;2023-12-20T05:08:56;5.90;99.90
19555;DHT22;9924;50.828;6.440;2023-12-20T05:11:21;5.90;99.90
19555;DHT22;9924;50.828;6.440;2023-12-20T05:13:47;5.90;99.90
19555;DHT22;9924;50.828;6.440;2023-12-20T05:16:13;5.90;99.90
19555;DHT22;9924;50.828;6.440;2023-12-20T05:18:40;5.90;99.90
19555;DHT22;9924;50.828;6.440;2023-12-20T05:21:05;5.90;99.90
19555;DHT22;9924;50.828;6.440;2023-12-20T05:23:31;5.90;99.90
19555;DHT22;9924;50.828;6.440;2023-12-20T05:25:57;5.90;99.90
19555;DHT22;9924;50.828;6.440;2023-12-20T05:28:22;5.90;99.90
19555;DHT22;9924;50.828;6.440;2023-12-20T05:30:48;5.90;99.90
19555;DHT22;9924;50.828;6.440;2023-12-20T05:33:14;5.90;99.90
19555;DHT22;9924;50.828;6.440;2023-12-20T05:35:39;6.00;99.90
19555;DHT22;9924;50.828;6.440;2023-12-20T05:38:05;6.00;99.90
19555;DHT22;9924;50.828;6.440;2023-12-20T05:40:31;6.00;99.90
19555;DHT22;9924;50.828;6.440;2023-12-20T05:42:57;6.00;99.90
19555;DHT22;9924;50.828;6.440;2023-12-20T05:45:22;6.10;99.90
19555;DHT22;9924;50.828;6.440;2023-12-20T05:47:48;6.10;99.90
19555;DHT22;9924;50.828;6.440;2023-12-20T05:50:14;6.10;99.90
19555;DHT22;9924;50.828;6.440;2023-12-20T05:52:40;6.10;99.90
19555;DHT22;9924;50.828;6.440;2023-12-20T05:55:06;6.10;99.90
19555;DHT22;9924;50.828;6.440;2023-12-20T05:57:32;6.10;99.90
19555;DHT22;9924;50.828;6.440;2023-12-20T05:59:58;6.10;99.90
19555;DHT22;9924;50.828;6.440;2023-12-20T06:02:23;6.10;99.90
19555;DHT22;9924;50.828;6.440;2023-12-20T06:04:49;6.10;99.90
19555;DHT22;9924;50.828;6.440;2023-12-20T06:07:15;6.10;99.90
19555;DHT22;9924;50.828;6.440;2023-12-20T06:09:41;6.10;99.90
19555;DHT22;9924;50.828;6.440;2023-12-20T06:12:07;6.10;99.90
19555;DHT22;9924;50.828;6.440;2023-12-20T06:14:34;6.10;99.90
19555;DHT22;9924;50.828;6.440;2023-12-20T06:17:00;6.20;99.90
19555;DHT22;9924;50.828;6.440;2023-12-20T06:19:26;6.20;99.90
19555;DHT22;9924;50.828;6.440;2023-12-20T06:21:52;6.20;99.90
19555;DHT22;9924;50.828;6.440;2023-12-20T06:24:18;6.20;99.90
19555;DHT22;9924;50.828;6.440;2023-12-20T06:26:43;6.10;99.90
19555;DHT22;9924;50.828;6.440;2023-12-20T06:29:09;6.10;99.90
19555;DHT22;9924;50.828;6.440;2023-12-20T06:31:35;6.20;99.90
19555;DHT22;9924;50.828;6.440;2023-12-20T06:34:01;6.20;99.90
19555;DHT22;9924;50.828;6.440;2023-12-20T06:36:27;6.10;99.90
19555;DHT22;9924;50.828;6.440;2023-12-20T06:38:52;6.10;99.90
19555;DHT22;9924;50.828;6.440;2023-12-20T06:41:18;6.10;99.90
19555;DHT22;9924;50.828;6.440;2023-12-20T06:43:44;6.10;99.90
19555;DHT22;9924;50.828;6.440;2023-12-20T06:46:09;6.10;99.90
19555;DHT22;9924;50.828;6.440;2023-12-20T06:48:35;6.10;99.90
19555;DHT22;9924;50.828;6.440;2023-12-20T06:51:01;6.10;99.90
19555;DHT22;9924;50.828;6.440;2023-12-20T06:53:30;6.10;99.90
19555;DHT22;9924;50.828;6.440;2023-12-20T06:55:55;6.10;99.90
19555;DHT22;9924;50.828;6.440;2023-12-20T06:58:24;6.00;99.90
19555;DHT22;9924;50.828;6.440;2023-12-20T07:00:50;6.00;99.90
19555;DHT22;9924;50.828;6.440;2023-12-20T07:03:17;6.00;99.90
19555;DHT22;9924;50.828;6.440;2023-12-20T07:05:43;6.00;99.90
19555;DHT22;9924;50.828;6.440;2023-12-20T07:08:09;6.00;99.90
19555;DHT22;9924;50.828;6.440;2023-12-20T07:10:34;6.00;99.90
19555;DHT22;9924;50.828;6.440;2023-12-20T07:13:00;6.10;99.90
19555;DHT22;9924;50.828;6.440;2023-12-20T07:15:26;6.20;99.90
19555;DHT22;9924;50.828;6.440;2023-12-20T07:17:52;6.20;99.90
19555;DHT22;9924;50.828;6.440;2023-12-20T07:20:18;6.20;99.90
19555;DHT22;9924;50.828;6.440;2023-12-20T07:22:44;6.20;99.90
19555;DHT22;9924;50.828;6.440;2023-12-20T07:25:09;6.20;99.90
19555;DHT22;9924;50.828;6.440;2023-12-20T07:27:36;6.20;99.90
19555;DHT22;9924;50.828;6.440;2023-12-20T07:30:01;6.20;99.90
19555;DHT22;9924;50.828;6.440;2023-12-20T07:32:27;6.20;99.90
19555;DHT22;9924;50.828;6.440;2023-12-20T07:34:53;6.20;99.90
19555;DHT22;9924;50.828;6.440;2023-12-20T07:37:20;6.20;99.90
19555;DHT22;9924;50.828;6.440;2023-12-20T07:39:46;6.20;99.90
19555;DHT22;9924;50.828;6.440;2023-12-20T07:42:12;6.10;99.90
19555;DHT22;9924;50.828;6.440;2023-12-20T07:44:37;6.00;99.90
19555;DHT22;9924;50.828;6.440;2023-12-20T07:47:03;6.00;99.90
19555;DHT22;9924;50.828;6.440;2023-12-20T07:49:30;5.90;99.90
19555;DHT22;9924;50.828;6.440;2023-12-20T07:51:56;5.90;99.90
19555;DHT22;9924;50.828;6.440;2023-12-20T07:54:21;5.80;99.90
19555;DHT22;9924;50.828;6.440;2023-12-20T07:56:48;5.80;99.90
19555;DHT22;9924;50.828;6.440;2023-12-20T07:59:14;5.80;99.90
19555;DHT22;9924;50.828;6.440;2023-12-20T08:01:39;5.80;99.90
19555;DHT22;9924;50.828;6.440;2023-12-20T08:04:05;5.80;99.90
19555;DHT22;9924;50.828;6.440;2023-12-20T08:06:31;5.80;99.90
19555;DHT22;9924;50.828;6.440;2023-12-20T08:08:57;5.80;99.90
19555;DHT22;9924;50.828;6.440;2023-12-20T08:11:22;5.80;99.90
19555;DHT22;9924;50.828;6.440;2023-12-20T08:13:48;5.80;99.90
19555;DHT22;9924;50.828;6.440;2023-12-20T08:16:14;5.70;99.90
19555;DHT22;9924;50.828;6.440;2023-12-20T08:18:41;5.80;99.90
19555;DHT22;9924;50.828;6.440;2023-12-20T08:21:06;5.80;99.90
19555;DHT22;9924;50.828;6.440;2023-12-20T08:23:35;5.80;99.90
19555;DHT22;9924;50.828;6.440;2023-12-20T08:26:07;5.80;99.90
19555;DHT22;9924;50.828;6.440;2023-12-20T08:28:33;5.80;99.90
19555;DHT22;9924;50.828;6.440;2023-12-20T08:31:00;5.90;99.90
19555;DHT22;9924;50.828;6.440;2023-12-20T08:33:26;5.90;99.90
19555;DHT22;9924;50.828;6.440;2023-12-20T08:35:52;6.00;99.90
19555;DHT22;9924;50.828;6.440;2023-12-20T08:38:18;6.00;99.90
19555;DHT22;9924;50.828;6.440;2023-12-20T08:40:44;6.00;99.90
19555;DHT22;9924;50.828;6.440;2023-12-20T08:43:10;6.10;99.90
19555;DHT22;9924;50.828;6.440;2023-12-20T08:45:36;6.10;99.90
19555;DHT22;9924;50.828;6.440;2023-12-20T08:48:02;6.20;99.90
19555;DHT22;9924;50.828;6.440;2023-12-20T08:50:28;6.20;99.90
19555;DHT22;9924;50.828;6.440;2023-12-20T08:52:54;6.20;99.90
19555;DHT22;9924;50.828;6.440;2023-12-20T08:55:20;6.20;99.90
19555;DHT22;9924;50.828;6.440;2023-12-20T08:57:45;6.20;99.90
19555;DHT22;9924;50.828;6.440;2023-12-20T09:00:11;6.30;99.90
19555;DHT22;9924;50.828;6.440;2023-12-20T09:02:37;6.20;99.90
19555;DHT22;9924;50.828;6.440;2023-12-20T09:05:03;6.20;99.90
19555;DHT22;9924;50.828;6.440;2023-12-20T09:07:29;6.30;99.90
19555;DHT22;9924;50.828;6.440;2023-12-20T09:09:57;6.20;99.90
19555;DHT22;9924;50.828;6.440;2023-12-20T09:12:22;6.30;99.90
19555;DHT22;9924;50.828;6.440;2023-12-20T09:14:50;6.30;99.90
19555;DHT22;9924;50.828;6.440;2023-12-20T09:17:16;6.40;99.90
19555;DHT22;9924;50.828;6.440;2023-12-20T09:19:43;6.50;99.90
19555;DHT22;9924;50.828;6.440;2023-12-20T09:22:11;6.50;99.90
19555;DHT22;9924;50.828;6.440;2023-12-20T09:24:37;6.50;99.90
19555;DHT22;9924;50.828;6.440;2023-12-20T09:27:04;6.50;99.90
19555;DHT22;9924;50.828;6.440;2023-12-20T09:29:31;6.50;99.90
19555;DHT22;9924;50.828;6.440;2023-12-20T09:31:57;6.50;99.90
19555;DHT22;9924;50.828;6.440;2023-12-20T09:34:23;6.50;99.90
19555;DHT22;9924;50.828;6.440;2023-12-20T09:36:49;6.50;99.90
19555;DHT22;9924;50.828;6.440;2023-12-20T09:39:17;6.40;99.90
19555;DHT22;9924;50.828;6.440;2023-12-20T09:42:00;6.50;99.90
19555;DHT22;9924;50.828;6.440;2023-12-20T09:44:26;6.90;99.90
19555;DHT22;9924;50.828;6.440;2023-12-20T09:46:52;7.20;99.90
19555;DHT22;9924;50.828;6.440;2023-12-20T09:49:19;7.50;99.90
19555;DHT22;9924;50.828;6.440;2023-12-20T09:51:46;7.50;99.90
19555;DHT22;9924;50.828;6.440;2023-12-20T09:54:17;7.20;99.90
19555;DHT22;9924;50.828;6.440;2023-12-20T09:56:42;7.00;99.90
19555;DHT22;9924;50.828;6.440;2023-12-20T09:59:08;7.00;99.90
19555;DHT22;9924;50.828;6.440;2023-12-20T10:01:35;7.20;99.90
19555;DHT22;9924;50.828;6.440;2023-12-20T10:04:05;7.20;99.90
19555;DHT22;9924;50.828;6.440;2023-12-20T10:06:37;7.20;99.90
19555;DHT22;9924;50.828;6.440;2023-12-20T10:09:03;7.10;99.90
19555;DHT22;9924;50.828;6.440;2023-12-20T10:11:29;7.00;99.90
19555;DHT22;9924;50.828;6.440;2023-12-20T10:14:01;7.00;99.90
19555;DHT22;9924;50.828;6.440;2023-12-20T10:16:27;6.90;99.90
19555;DHT22;9924;50.828;6.440;2023-12-20T10:18:54;6.90;99.90
19555;DHT22;9924;50.828;6.440;2023-12-20T10:21:20;6.90;99.90
19555;DHT22;9924;50.828;6.440;2023-12-20T10:23:46;6.90;99.90
19555;DHT22;9924;50.828;6.440;2023-12-20T10:26:22;7.00;99.90
19555;DHT22;9924;50.828;6.440;2023-12-20T10:28:53;7.00;99.90
19555;DHT22;9924;50.828;6.440;2023-12-20T10:31:30;7.10;99.90
19555;DHT22;9924;50.828;6.440;2023-12-20T10:33:57;7.30;99.90
19555;DHT22;9924;50.828;6.440;2023-12-20T10:36:25;7.50;99.90
19555;DHT22;9924;50.828;6.440;2023-12-20T10:38:53;7.40;99.90
19555;DHT22;9924;50.828;6.440;2023-12-20T10:41:30;7.30;99.90
19555;DHT22;9924;50.828;6.440;2023-12-20T10:43:59;7.20;99.90
19555;DHT22;9924;50.828;6.440;2023-12-20T10:46:27;7.20;99.90
19555;DHT22;9924;50.828;6.440;2023-12-20T10:48:54;7.20;99.90
19555;DHT22;9924;50.828;6.440;2023-12-20T10:51:21;7.20;99.90
19555;DHT22;9924;50.828;6.440;2023-12-20T10:53:48;7.30;99.90
19555;DHT22;9924;50.828;6.440;2023-12-20T10:56:17;7.40;99.90
19555;DHT22;9924;50.828;6.440;2023-12-20T10:58:45;7.40;99.90
19555;DHT22;9924;50.828;6.440;2023-12-20T11:01:13;7.40;99.90
19555;DHT22;9924;50.828;6.440;2023-12-20T11:03:44;7.30;99.90
19555;DHT22;9924;50.828;6.440;2023-12-20T11:09:20;7.30;99.90
19555;DHT22;9924;50.828;6.440;2023-12-20T11:12:05;7.20;99.90
19555;DHT22;9924;50.828;6.440;2023-12-20T11:14:51;7.30;99.90
19555;DHT22;9924;50.828;6.440;2023-12-20T11:17:17;7.20;99.90
19555;DHT22;9924;50.828;6.440;2023-12-20T11:20:04;7.20;99.90
19555;DHT22;9924;50.828;6.440;2023-12-20T11:22:31;7.20;99.90
19555;DHT22;9924;50.828;6.440;2023-12-20T11:25:15;7.10;99.90
19555;DHT22;9924;50.828;6.440;2023-12-20T11:27:41;7.20;99.90
19555;DHT22;9924;50.828;6.440;2023-12-20T11:30:08;7.20;99.90
19555;DHT22;9924;50.828;6.440;2023-12-20T11:32:36;7.20;99.90
19555;DHT22;9924;50.828;6.440;2023-12-20T11:35:17;7.20;99.90
19555;DHT22;9924;50.828;6.440;2023-12-20T11:37:44;7.30;99.90
19555;DHT22;9924;50.828;6.440;2023-12-20T11:40:15;7.30;99.90
19555;DHT22;9924;50.828;6.440;2023-12-20T11:42:42;7.30;99.90
19555;DHT22;9924;50.828;6.440;2023-12-20T11:45:09;7.40;99.90
19555;DHT22;9924;50.828;6.440;2023-12-20T11:47:36;7.40;99.90
19555;DHT22;9924;50.828;6.440;2023-12-20T11:50:01;7.40;99.90
19555;DHT22;9924;50.828;6.440;2023-12-20T11:52:29;7.40;99.90
19555;DHT22;9924;50.828;6.440;2023-12-20T11:54:56;7.40;99.90
19555;DHT22;9924;50.828;6.440;2023-12-20T11:57:22;7.40;99.90
19555;DHT22;9924;50.828;6.440;2023-12-20T11:59:48;7.40;99.90
19555;DHT22;9924;50.828;6.440;2023-12-20T12:02:14;7.40;99.90
19555;DHT22;9924;50.828;6.440;2023-12-20T12:04:41;7.40;99.90
19555;DHT22;9924;50.828;6.440;2023-12-20T12:07:07;7.40;99.90
19555;DHT22;9924;50.828;6.440;2023-12-20T12:09:33;7.40;99.90
19555;DHT22;9924;50.828;6.440;2023-12-20T12:11:59;7.40;99.90
19555;DHT22;9924;50.828;6.440;2023-12-20T12:14:24;7.30;99.90
19555;DHT22;9924;50.828;6.440;2023-12-20T12:16:50;7.30;99.90
19555;DHT22;9924;50.828;6.440;2023-12-20T12:19:22;7.30;99.90
19555;DHT22;9924;50.828;6.440;2023-12-20T12:22:05;7.30;99.90
19555;DHT22;9924;50.828;6.440;2023-12-20T12:24:36;7.30;99.90
19555;DHT22;9924;50.828;6.440;2023-12-20T12:27:02;7.30;99.90
19555;DHT22;9924;50.828;6.440;2023-12-20T12:29:29;7.30;99.90
19555;DHT22;9924;50.828;6.440;2023-12-20T12:31:55;7.30;99.90
19555;DHT22;9924;50.828;6.440;2023-12-20T12:34:21;7.30;99.90
19555;DHT22;9924;50.828;6.440;2023-12-20T12:36:47;7.30;99.90
19555;DHT22;9924;50.828;6.440;2023-12-20T12:39:15;7.30;99.90
19555;DHT22;9924;50.828;6.440;2023-12-20T12:41:41;7.30;99.90
19555;DHT22;9924;50.828;6.440;2023-12-20T12:44:07;7.30;99.90
19555;DHT22;9924;50.828;6.440;2023-12-20T12:46:32;7.30;99.90
19555;DHT22;9924;50.828;6.440;2023-12-20T12:48:58;7.30;99.90
19555;DHT22;9924;50.828;6.440;2023-12-20T12:51:24;7.30;99.90
19555;DHT22;9924;50.828;6.440;2023-12-20T12:53:49;7.30;99.90
19555;DHT22;9924;50.828;6.440;2023-12-20T12:56:15;7.30;99.90
19555;DHT22;9924;50.828;6.440;2023-12-20T12:58:41;7.40;99.90
19555;DHT22;9924;50.828;6.440;2023-12-20T13:01:07;7.30;99.90
19555;DHT22;9924;50.828;6.440;2023-12-20T13:03:32;7.30;99.90
19555;DHT22;9924;50.828;6.440;2023-12-20T13:05:59;7.20;99.90
19555;DHT22;9924;50.828;6.440;2023-12-20T13:08:26;7.20;99.90
19555;DHT22;9924;50.828;6.440;2023-12-20T13:10:52;7.10;99.90
19555;DHT22;9924;50.828;6.440;2023-12-20T13:13:17;7.10;99.90
19555;DHT22;9924;50.828;6.440;2023-12-20T13:15:43;7.10;99.90
19555;DHT22;9924;50.828;6.440;2023-12-20T13:18:16;7.10;99.90
19555;DHT22;9924;50.828;6.440;2023-12-20T13:20:42;7.10;99.90
19555;DHT22;9924;50.828;6.440;2023-12-20T13:23:08;7.10;99.90
19555;DHT22;9924;50.828;6.440;2023-12-20T13:25:33;7.20;99.90
19555;DHT22;9924;50.828;6.440;2023-12-20T13:27:59;7.20;99.90
19555;DHT22;9924;50.828;6.440;2023-12-20T13:30:25;7.20;99.90
19555;DHT22;9924;50.828;6.440;2023-12-20T13:32:50;7.30;99.90
19555;DHT22;9924;50.828;6.440;2023-12-20T13:35:16;7.30;99.90
19555;DHT22;9924;50.828;6.440;2023-12-20T13:37:42;7.40;99.90
19555;DHT22;9924;50.828;6.440;2023-12-20T13:40:08;7.40;99.90
19555;DHT22;9924;50.828;6.440;2023-12-20T13:42:33;7.50;99.90
19555;DHT22;9924;50.828;6.440;2023-12-20T13:45:00;7.60;99.90
19555;DHT22;9924;50.828;6.440;2023-12-20T13:47:26;7.60;99.90
19555;DHT22;9924;50.828;6.440;2023-12-20T13:49:52;7.50;99.90
19555;DHT22;9924;50.828;6.440;2023-12-20T13:52:17;7.50;99.90
19555;DHT22;9924;50.828;6.440;2023-12-20T13:54:44;7.50;99.90
19555;DHT22;9924;50.828;6.440;2023-12-20T13:57:09;7.50;99.90
19555;DHT22;9924;50.828;6.440;2023-12-20T13:59:35;7.40;99.90
19555;DHT22;9924;50.828;6.440;2023-12-20T14:02:00;7.40;99.90
19555;DHT22;9924;50.828;6.440;2023-12-20T14:04:28;7.40;99.90
19555;DHT22;9924;50.828;6.440;2023-12-20T14:06:54;7.40;99.90
19555;DHT22;9924;50.828;6.440;2023-12-20T14:09:20;7.40;99.90
19555;DHT22;9924;50.828;6.440;2023-12-20T14:11:46;7.40;99.90
19555;DHT22;9924;50.828;6.440;2023-12-20T14:14:12;7.40;99.90
19555;DHT22;9924;50.828;6.440;2023-12-20T14:16:37;7.40;99.90
19555;DHT22;9924;50.828;6.440;2023-12-20T14:19:03;7.50;99.90
19555;DHT22;9924;50.828;6.440;2023-12-20T14:21:29;7.50;99.90
19555;DHT22;9924;50.828;6.440;2023-12-20T14:23:55;7.50;99.90
19555;DHT22;9924;50.828;6.440;2023-12-20T14:26:20;7.50;99.90
19555;DHT22;9924;50.828;6.440;2023-12-20T14:28:46;7.50;99.90
19555;DHT22;9924;50.828;6.440;2023-12-20T14:31:12;7.50;99.90
19555;DHT22;9924;50.828;6.440;2023-12-20T14:33:37;7.50;99.90
19555;DHT22;9924;50.828;6.440;2023-12-20T14:36:05;7.50;99.90
19555;DHT22;9924;50.828;6.440;2023-12-20T14:38:31;7.50;99.90
19555;DHT22;9924;50.828;6.440;2023-12-20T14:40:57;7.40;99.90
19555;DHT22;9924;50.828;6.440;2023-12-20T14:43:23;7.30;99.90
19555;DHT22;9924;50.828;6.440;2023-12-20T14:45:48;7.30;99.90
19555;DHT22;9924;50.828;6.440;2023-12-20T14:48:14;7.30;99.90
19555;DHT22;9924;50.828;6.440;2023-12-20T14:50:41;7.20;99.90
19555;DHT22;9924;50.828;6.440;2023-12-20T14:53:08;7.20;99.90
19555;DHT22;9924;50.828;6.440;2023-12-20T14:55:33;7.20;99.90
19555;DHT22;9924;50.828;6.440;2023-12-20T14:57:59;7.30;99.90
19555;DHT22;9924;50.828;6.440;2023-12-20T15:00:26;7.30;99.90
19555;DHT22;9924;50.828;6.440;2023-12-20T15:02:52;7.30;99.90
19555;DHT22;9924;50.828;6.440;2023-12-20T15:05:19;7.30;99.90
19555;DHT22;9924;50.828;6.440;2023-12-20T15:07:45;7.30;99.90
19555;DHT22;9924;50.828;6.440;2023-12-20T15:10:13;7.30;99.90
19555;DHT22;9924;50.828;6.440;2023-12-20T15:12:39;7.30;99.90
19555;DHT22;9924;50.828;6.440;2023-12-20T15:15:05;7.30;99.90
19555;DHT22;9924;50.828;6.440;2023-12-20T15:17:31;7.40;99.90
19555;DHT22;9924;50.828;6.440;2023-12-20T15:19:56;7.30;99.90
19555;DHT22;9924;50.828;6.440;2023-12-20T15:22:22;7.40;99.90
19555;DHT22;9924;50.828;6.440;2023-12-20T15:24:49;7.40;99.90
19555;DHT22;9924;50.828;6.440;2023-12-20T15:27:16;7.40;99.90
19555;DHT22;9924;50.828;6.440;2023-12-20T15:29:43;7.40;99.90
19555;DHT22;9924;50.828;6.440;2023-12-20T15:32:09;7.40;99.90
19555;DHT22;9924;50.828;6.440;2023-12-20T15:34:34;7.30;99.90
19555;DHT22;9924;50.828;6.440;2023-12-20T15:37:00;7.30;99.90
19555;DHT22;9924;50.828;6.440;2023-12-20T15:39:26;7.30;99.90
19555;DHT22;9924;50.828;6.440;2023-12-20T15:41:51;7.30;99.90
19555;DHT22;9924;50.828;6.440;2023-12-20T15:44:17;7.30;99.90
19555;DHT22;9924;50.828;6.440;2023-12-20T15:46:43;7.30;99.90
19555;DHT22;9924;50.828;6.440;2023-12-20T15:49:09;7.30;99.90
19555;DHT22;9924;50.828;6.440;2023-12-20T15:51:37;7.30;99.90
19555;DHT22;9924;50.828;6.440;2023-12-20T15:54:03;7.30;99.90
19555;DHT22;9924;50.828;6.440;2023-12-20T15:56:32;7.30;99.90
19555;DHT22;9924;50.828;6.440;2023-12-20T15:59:01;7.30;99.90
19555;DHT22;9924;50.828;6.440;2023-12-20T16:01:26;7.30;99.90